Time;durP1;ratioP1;P1;durP2;ratioP2;P2;SDS_P1;SDS_P2;PMS_P1;PMS_P2;Temp;Humidity;BMP_temperature;BMP_pressure;BME280_temperature;BME280_humidity;BME280_pressure;Samples;Min_cycle;Max_cycle;Signal;HPM_P1;HPM_P2
2021/09/09 00:00:47;;;;;;;5.43;4.78;;;20.10;63.60;;;;;;5112831;28;20031;-74
2021/09/09 00:03:13;;;;;;;4.95;4.55;;;20.20;63.40;;;;;;5112877;28;20030;-74
2021/09/09 00:05:39;;;;;;;6.35;5.07;;;20.20;63.50;;;;;;5113854;28;20027;-74
2021/09/09 00:08:04;;;;;;;5.30;4.80;;;20.20;63.40;;;;;;5113609;28;20545;-74
2021/09/09 00:10:31;;;;;;;4.85;4.45;;;20.20;63.20;;;;;;5113783;28;20102;-74
2021/09/09 00:12:56;;;;;;;5.07;4.47;;;20.20;62.70;;;;;;5095224;28;20024;-74
2021/09/09 00:15:22;;;;;;;6.22;4.20;;;20.20;62.60;;;;;;5113395;28;20064;-74
2021/09/09 00:17:48;;;;;;;5.70;5.15;;;20.20;62.20;;;;;;5113549;28;20062;-74
2021/09/09 00:20:14;;;;;;;5.93;4.78;;;20.20;62.10;;;;;;5113149;28;20559;-74
2021/09/09 00:22:41;;;;;;;6.10;4.47;;;20.10;63.20;;;;;;5113367;28;20516;-74
2021/09/09 00:25:08;;;;;;;7.53;4.28;;;20.10;63.10;;;;;;5113482;28;20058;-74
2021/09/09 00:27:34;;;;;;;4.82;4.43;;;20.20;62.90;;;;;;5113011;28;20073;-74
2021/09/09 00:30:00;;;;;;;4.97;4.25;;;20.10;62.70;;;;;;5112992;28;20584;-74
2021/09/09 00:32:25;;;;;;;4.63;4.22;;;20.20;62.50;;;;;;5113323;28;20016;-74
2021/09/09 00:34:52;;;;;;;4.75;4.35;;;20.20;62.20;;;;;;5079697;28;20032;-74
2021/09/09 00:37:18;;;;;;;4.70;4.30;;;20.20;61.80;;;;;;5074599;28;20032;-74
2021/09/09 00:39:44;;;;;;;4.95;4.50;;;20.20;61.60;;;;;;5110811;28;20546;-74
2021/09/09 00:42:10;;;;;;;4.60;4.20;;;20.20;61.60;;;;;;5113160;28;20118;-74
2021/09/09 00:44:36;;;;;;;8.55;4.35;;;20.20;61.40;;;;;;5112974;28;20035;-74
2021/09/09 00:47:06;;;;;;;5.93;4.55;;;20.20;60.40;;;;;;5094562;28;20028;-74
2021/09/09 00:49:33;;;;;;;4.80;4.18;;;20.30;60.30;;;;;;5112840;28;20023;-74
2021/09/09 00:51:59;;;;;;;4.35;3.95;;;20.30;60.10;;;;;;5112928;28;20022;-74
2021/09/09 00:54:25;;;;;;;4.70;3.90;;;20.20;60.20;;;;;;5113017;28;20035;-74
2021/09/09 00:56:51;;;;;;;4.55;4.15;;;20.20;60.40;;;;;;5112501;28;20023;-74
2021/09/09 00:59:18;;;;;;;4.60;4.20;;;20.20;60.60;;;;;;5112357;28;20028;-74
2021/09/09 01:01:44;;;;;;;4.40;3.85;;;20.20;60.80;;;;;;5112629;28;20107;-74
2021/09/09 01:04:10;;;;;;;4.47;3.75;;;20.10;60.80;;;;;;5111960;28;20086;-74
2021/09/09 01:06:36;;;;;;;4.70;4.35;;;20.00;60.50;;;;;;5112611;28;20486;-74
2021/09/09 01:09:02;;;;;;;5.05;4.07;;;20.00;60.30;;;;;;5112652;28;20599;-74
2021/09/09 01:11:28;;;;;;;7.75;4.82;;;20.10;60.30;;;;;;5094286;28;20020;-74
2021/09/09 01:14:13;;;;;;;4.43;3.97;;;20.00;60.20;;;;;;5112832;28;20089;-74
2021/09/09 01:16:40;;;;;;;4.20;3.80;;;20.00;60.30;;;;;;5112682;28;20032;-74
2021/09/09 01:19:07;;;;;;;4.40;4.05;;;20.00;60.30;;;;;;5112426;28;20028;-74
2021/09/09 01:21:34;;;;;;;4.30;3.90;;;20.00;60.30;;;;;;5112736;28;20032;-74
2021/09/09 01:24:00;;;;;;;4.18;3.88;;;20.00;60.20;;;;;;5111973;28;20027;-74
2021/09/09 01:26:28;;;;;;;4.88;3.88;;;20.00;60.50;;;;;;5112711;28;20509;-74
2021/09/09 01:28:56;;;;;;;3.92;3.60;;;19.90;60.40;;;;;;5094454;28;20026;-74
2021/09/09 01:31:22;;;;;;;6.50;4.05;;;19.80;60.60;;;;;;5112608;28;20444;-74
2021/09/09 01:33:53;;;;;;;4.13;3.75;;;19.80;60.30;;;;;;5108231;28;20066;-74
2021/09/09 01:36:18;;;;;;;4.75;3.85;;;19.70;60.70;;;;;;5096237;28;20070;-74
2021/09/09 01:38:44;;;;;;;4.97;3.65;;;19.60;60.90;;;;;;5096336;28;20055;-74
2021/09/09 01:41:10;;;;;;;4.28;3.83;;;19.50;61.00;;;;;;5101683;28;20028;-74
2021/09/09 01:43:35;;;;;;;4.10;3.70;;;19.60;61.10;;;;;;5116278;28;20024;-74
2021/09/09 01:46:01;;;;;;;4.35;3.95;;;19.50;60.80;;;;;;5116616;28;20066;-74
2021/09/09 01:48:27;;;;;;;4.25;3.83;;;19.50;60.90;;;;;;5116237;28;20027;-74
2021/09/09 01:50:53;;;;;;;4.45;3.78;;;19.40;60.70;;;;;;5116395;28;20054;-74
2021/09/09 01:53:18;;;;;;;4.47;4.07;;;19.50;60.80;;;;;;5116159;28;20042;-74
2021/09/09 01:55:44;;;;;;;4.15;3.80;;;19.60;60.70;;;;;;5116384;28;20024;-74
2021/09/09 01:58:10;;;;;;;3.63;3.40;;;19.60;60.80;;;;;;5116077;28;20024;-74
2021/09/09 02:00:36;;;;;;;4.50;3.67;;;19.50;60.90;;;;;;5115870;28;20015;-74
2021/09/09 02:03:01;;;;;;;4.63;4.13;;;19.50;61.00;;;;;;5116172;28;20451;-74
2021/09/09 02:05:27;;;;;;;6.47;4.75;;;19.50;61.10;;;;;;5095642;28;20035;-74
2021/09/09 02:07:53;;;;;;;6.40;4.00;;;19.40;60.90;;;;;;5095655;28;20020;-74
2021/09/09 02:10:21;;;;;;;5.25;3.65;;;19.40;61.10;;;;;;5095562;28;20468;-74
2021/09/09 02:12:48;;;;;;;3.75;3.45;;;19.30;61.10;;;;;;5095541;28;20016;-74
2021/09/09 02:15:14;;;;;;;6.60;3.97;;;19.30;61.20;;;;;;5110837;28;20028;-74
2021/09/09 02:17:40;;;;;;;6.85;3.70;;;19.30;61.40;;;;;;5115795;28;20534;-74
2021/09/09 02:20:07;;;;;;;4.55;4.15;;;19.20;61.40;;;;;;5115286;28;20123;-74
2021/09/09 02:22:33;;;;;;;3.90;3.60;;;19.20;61.60;;;;;;5115690;28;20043;-74
2021/09/09 02:24:58;;;;;;;5.07;4.18;;;19.30;61.60;;;;;;5115228;28;20023;-74
2021/09/09 02:27:25;;;;;;;4.88;4.32;;;19.30;61.60;;;;;;5115293;28;20027;-74
2021/09/09 02:29:51;;;;;;;4.10;3.78;;;19.20;61.50;;;;;;5115284;28;20437;-74
2021/09/09 02:32:17;;;;;;;4.13;3.72;;;19.20;61.90;;;;;;5095180;28;20024;-74
2021/09/09 02:34:43;;;;;;;6.05;3.97;;;19.10;62.30;;;;;;5109410;28;20019;-74
2021/09/09 02:37:08;;;;;;;5.18;4.68;;;19.10;62.60;;;;;;5115133;28;20024;-74
2021/09/09 02:39:36;;;;;;;5.22;4.25;;;19.00;62.40;;;;;;5097182;28;20529;-74
2021/09/09 02:42:02;;;;;;;4.55;4.13;;;19.10;62.40;;;;;;5115235;28;20470;-74
2021/09/09 02:44:28;;;;;;;4.30;4.00;;;19.10;62.30;;;;;;5114034;28;20027;-74
2021/09/09 02:46:54;;;;;;;3.92;3.55;;;19.00;62.30;;;;;;5114886;28;20165;-74
2021/09/09 02:49:20;;;;;;;5.50;3.70;;;19.00;62.40;;;;;;5115063;28;20459;-74
2021/09/09 02:51:45;;;;;;;4.93;4.20;;;19.00;62.60;;;;;;5115122;28;20046;-74
2021/09/09 02:54:11;;;;;;;4.65;4.10;;;19.00;62.90;;;;;;5115184;28;20022;-74
2021/09/09 02:56:37;;;;;;;4.90;4.05;;;19.00;63.00;;;;;;5114981;28;20081;-74
2021/09/09 02:59:03;;;;;;;4.13;3.83;;;18.90;63.00;;;;;;5114822;28;20106;-74
2021/09/09 03:01:28;;;;;;;4.45;4.05;;;18.90;63.00;;;;;;5114766;28;20027;-74
2021/09/09 03:03:54;;;;;;;3.67;3.38;;;18.90;63.20;;;;;;5114583;28;20039;-74
2021/09/09 03:06:20;;;;;;;4.40;4.00;;;18.90;63.10;;;;;;5114918;28;20019;-74
2021/09/09 03:08:45;;;;;;;4.50;4.10;;;18.90;63.00;;;;;;5114696;28;20026;-74
2021/09/09 03:11:11;;;;;;;4.07;3.78;;;18.90;63.20;;;;;;5114767;28;20042;-74
2021/09/09 03:13:37;;;;;;;4.60;4.15;;;18.80;63.20;;;;;;5096546;28;20020;-74
2021/09/09 03:16:03;;;;;;;6.97;4.18;;;18.80;63.40;;;;;;5114628;28;20382;-74
2021/09/09 03:18:29;;;;;;;4.20;3.80;;;18.80;63.20;;;;;;5114230;28;20023;-74
2021/09/09 03:20:55;;;;;;;4.80;4.15;;;18.80;63.20;;;;;;5114185;28;20555;-74
2021/09/09 03:23:21;;;;;;;4.70;4.20;;;18.80;63.10;;;;;;5114397;28;20052;-74
2021/09/09 03:25:46;;;;;;;4.15;3.85;;;18.90;63.50;;;;;;5114259;28;20102;-74
2021/09/09 03:28:12;;;;;;;4.78;4.05;;;18.80;63.30;;;;;;5114551;28;20467;-74
2021/09/09 03:30:38;;;;;;;4.15;3.80;;;18.90;63.40;;;;;;5114263;28;20066;-74
2021/09/09 03:33:04;;;;;;;3.67;3.38;;;18.80;63.40;;;;;;5114345;28;20106;-74
2021/09/09 03:35:29;;;;;;;5.05;4.43;;;18.90;63.60;;;;;;5114187;28;20023;-74
2021/09/09 03:37:55;;;;;;;6.80;4.20;;;18.90;63.70;;;;;;5095875;28;20020;-74
2021/09/09 03:40:21;;;;;;;6.13;4.05;;;18.90;63.60;;;;;;5114053;28;20051;-74
2021/09/09 03:42:47;;;;;;;5.38;4.28;;;18.90;63.10;;;;;;5113843;28;20016;-74
2021/09/09 03:45:13;;;;;;;4.40;4.03;;;18.90;63.30;;;;;;5095782;28;20444;-74
2021/09/09 03:47:39;;;;;;;4.43;4.03;;;18.90;63.10;;;;;;5095799;28;20020;-74
2021/09/09 03:50:05;;;;;;;4.68;3.67;;;18.90;63.30;;;;;;5114137;28;20024;-74
2021/09/09 03:52:31;;;;;;;4.95;3.55;;;18.80;63.60;;;;;;5113940;28;20019;-74
2021/09/09 03:54:56;;;;;;;5.45;4.43;;;18.80;63.50;;;;;;5113993;28;20455;-74
2021/09/09 03:57:23;;;;;;;4.63;4.20;;;18.80;63.50;;;;;;5113523;28;20489;-75
2021/09/09 03:59:49;;;;;;;9.55;4.38;;;18.80;63.50;;;;;;5095507;28;20122;-74
2021/09/09 04:02:16;;;;;;;5.22;3.97;;;18.90;63.50;;;;;;5113678;28;20024;-74
2021/09/09 04:04:43;;;;;;;9.32;4.13;;;18.90;63.90;;;;;;5081110;28;20024;-74
2021/09/09 04:07:09;;;;;;;5.00;3.47;;;18.90;64.10;;;;;;5093346;28;20522;-74
2021/09/09 04:09:37;;;;;;;3.90;3.58;;;18.90;64.60;;;;;;5093416;28;20024;-74
2021/09/09 04:12:06;;;;;;;4.50;3.78;;;18.90;64.80;;;;;;5079049;28;20026;-74
2021/09/09 04:14:33;;;;;;;4.25;3.78;;;18.90;64.70;;;;;;5113672;28;20111;-74
2021/09/09 04:16:59;;;;;;;5.15;4.30;;;18.90;64.80;;;;;;5112908;28;20011;-74
2021/09/09 04:19:26;;;;;;;6.03;3.95;;;18.80;64.60;;;;;;5113051;28;20044;-74
2021/09/09 04:21:52;;;;;;;4.45;4.05;;;18.90;64.50;;;;;;5094879;28;20555;-74
2021/09/09 04:24:21;;;;;;;6.68;3.95;;;18.90;64.60;;;;;;5113429;28;20024;-74
2021/09/09 04:26:47;;;;;;;8.40;4.15;;;18.90;64.70;;;;;;5113209;28;20506;-74
2021/09/09 04:29:13;;;;;;;4.72;4.28;;;18.90;64.80;;;;;;5112859;28;20070;-74
2021/09/09 04:31:39;;;;;;;4.13;3.83;;;18.80;64.90;;;;;;5094916;28;20023;-74
2021/09/09 04:34:05;;;;;;;6.75;4.15;;;18.80;65.00;;;;;;5104278;28;20417;-74
2021/09/09 04:36:31;;;;;;;4.35;4.00;;;18.80;65.10;;;;;;5093097;28;20035;-74
2021/09/09 04:38:57;;;;;;;4.80;4.30;;;18.70;65.30;;;;;;5109509;28;20024;-74
2021/09/09 04:41:23;;;;;;;7.28;4.57;;;18.70;65.50;;;;;;5112835;28;20451;-74
2021/09/09 04:43:49;;;;;;;5.00;3.95;;;18.70;65.90;;;;;;5113078;28;20038;-74
2021/09/09 04:46:15;;;;;;;4.70;4.25;;;18.70;65.90;;;;;;5113094;28;20024;-74
2021/09/09 04:48:41;;;;;;;4.70;4.30;;;18.70;66.10;;;;;;5113038;28;20020;-74
2021/09/09 04:51:07;;;;;;;4.93;4.40;;;18.70;66.20;;;;;;5094790;28;20447;-74
2021/09/09 04:53:32;;;;;;;4.43;4.03;;;18.60;66.50;;;;;;5112941;28;20072;-74
2021/09/09 04:55:58;;;;;;;4.57;4.07;;;18.60;66.70;;;;;;5112172;28;20123;-74
2021/09/09 04:58:24;;;;;;;6.25;4.32;;;18.60;66.90;;;;;;5092565;28;20044;-74
2021/09/09 05:00:49;;;;;;;4.93;4.03;;;18.50;67.00;;;;;;5112810;28;20458;-74
2021/09/09 05:03:15;;;;;;;7.97;3.97;;;18.50;67.60;;;;;;5094471;28;20024;-74
2021/09/09 05:05:41;;;;;;;4.88;4.47;;;18.50;66.50;;;;;;5112847;28;20032;-74
2021/09/09 05:08:07;;;;;;;5.95;3.97;;;18.50;66.50;;;;;;5113608;28;20483;-74
2021/09/09 05:10:33;;;;;;;9.80;4.03;;;18.50;66.60;;;;;;5117082;28;20028;-75
2021/09/09 05:12:59;;;;;;;7.05;4.30;;;18.50;66.80;;;;;;5117221;28;20016;-74
2021/09/09 05:15:25;;;;;;;4.68;4.28;;;18.50;67.00;;;;;;5116079;28;20066;-74
2021/09/09 05:17:51;;;;;;;6.30;4.40;;;18.50;67.00;;;;;;5115518;28;20023;-74
2021/09/09 05:20:17;;;;;;;4.80;4.32;;;18.50;66.80;;;;;;5115319;28;20514;-74
2021/09/09 05:22:43;;;;;;;7.97;4.35;;;18.50;66.80;;;;;;5115721;28;20034;-74
2021/09/09 05:25:09;;;;;;;6.72;4.25;;;18.60;66.60;;;;;;5096474;28;20030;-74
2021/09/09 05:27:36;;;;;;;4.47;4.05;;;18.60;66.80;;;;;;5114803;28;20042;-74
2021/09/09 05:30:02;;;;;;;6.30;4.65;;;18.60;66.60;;;;;;5097239;28;20027;-74
2021/09/09 05:32:28;;;;;;;7.95;3.80;;;18.60;66.60;;;;;;5116296;28;20026;-74
2021/09/09 05:34:53;;;;;;;6.65;4.70;;;18.60;66.60;;;;;;5115975;28;20110;-74
2021/09/09 05:37:19;;;;;;;6.03;4.80;;;18.60;67.10;;;;;;5116040;28;20104;-74
2021/09/09 05:39:45;;;;;;;6.97;4.70;;;18.60;67.20;;;;;;5116593;28;20055;-74
2021/09/09 05:42:11;;;;;;;5.13;4.40;;;18.60;67.20;;;;;;5116646;28;20023;-74
2021/09/09 05:44:36;;;;;;;5.18;4.10;;;18.60;67.10;;;;;;5116364;28;20019;-74
2021/09/09 05:47:02;;;;;;;5.25;4.18;;;18.60;67.00;;;;;;5098150;28;20015;-74
2021/09/09 05:49:28;;;;;;;4.78;4.15;;;18.70;66.90;;;;;;5116542;28;20111;-74
2021/09/09 05:51:54;;;;;;;4.38;3.97;;;18.80;66.70;;;;;;5116209;28;20081;-74
2021/09/09 05:54:19;;;;;;;5.78;4.47;;;18.80;66.60;;;;;;5116265;28;20028;-74
2021/09/09 05:56:45;;;;;;;4.03;3.72;;;18.80;66.30;;;;;;5116391;28;20026;-74
2021/09/09 05:59:11;;;;;;;4.40;4.00;;;18.80;66.20;;;;;;5116390;28;20019;-74
2021/09/09 06:01:37;;;;;;;6.50;4.90;;;18.90;66.30;;;;;;5116175;28;20363;-74
2021/09/09 06:04:03;;;;;;;6.10;4.43;;;18.90;66.50;;;;;;5097535;28;20024;-74
2021/09/09 06:06:29;;;;;;;5.35;4.78;;;19.00;66.20;;;;;;5097638;28;20019;-74
2021/09/09 06:08:55;;;;;;;6.60;4.00;;;19.00;66.40;;;;;;5115586;28;20387;-76
2021/09/09 06:11:21;;;;;;;4.30;3.88;;;19.10;66.50;;;;;;5097520;28;20023;-76
2021/09/09 06:13:46;;;;;;;9.98;4.85;;;19.20;66.70;;;;;;5097491;28;20027;-76
2021/09/09 06:16:12;;;;;;;4.88;4.45;;;19.20;66.90;;;;;;5115717;28;20039;-76
2021/09/09 06:18:38;;;;;;;6.97;4.53;;;19.20;66.70;;;;;;5115316;28;20061;-76
2021/09/09 06:21:04;;;;;;;5.30;4.10;;;19.20;66.90;;;;;;5115533;28;20048;-76
2021/09/09 06:23:32;;;;;;;5.57;4.47;;;19.20;66.80;;;;;;5115497;28;20080;-76
2021/09/09 06:25:57;;;;;;;5.35;3.95;;;19.30;67.20;;;;;;5115845;28;20046;-76
2021/09/09 06:28:24;;;;;;;5.30;4.80;;;19.30;66.80;;;;;;5115164;28;20063;-76
2021/09/09 06:30:49;;;;;;;6.80;4.20;;;19.30;66.70;;;;;;5115594;28;20026;-76
2021/09/09 06:33:15;;;;;;;4.22;3.63;;;19.40;67.20;;;;;;5113797;28;20024;-76
2021/09/09 06:35:43;;;;;;;4.30;3.90;;;19.40;67.00;;;;;;5077040;28;20020;-76
2021/09/09 06:38:08;;;;;;;7.10;4.10;;;19.50;66.80;;;;;;5110425;28;20507;-76
2021/09/09 06:40:34;;;;;;;5.95;5.10;;;19.50;67.20;;;;;;5097139;28;20118;-76
2021/09/09 06:43:00;;;;;;;4.63;4.15;;;19.60;67.20;;;;;;5115252;28;20027;-76
2021/09/09 06:45:26;;;;;;;6.32;4.18;;;19.60;67.60;;;;;;5114985;28;20027;-76
2021/09/09 06:47:52;;;;;;;5.43;4.13;;;19.70;68.20;;;;;;5096694;28;20466;-76
2021/09/09 06:50:18;;;;;;;3.97;3.65;;;19.70;68.40;;;;;;5115012;28;20118;-76
2021/09/09 06:52:44;;;;;;;11.30;4.60;;;19.80;68.30;;;;;;5115413;28;20024;-76
2021/09/09 06:55:10;;;;;;;8.85;5.05;;;19.90;67.90;;;;;;5114753;28;20042;-76
2021/09/09 06:57:36;;;;;;;7.32;3.90;;;20.00;68.10;;;;;;5115292;28;20078;-76
2021/09/09 07:00:02;;;;;;;7.22;4.22;;;20.00;68.10;;;;;;5110696;28;20475;-76
2021/09/09 07:02:28;;;;;;;7.72;4.47;;;20.10;67.90;;;;;;5104285;28;20054;-76
2021/09/09 07:04:54;;;;;;;5.68;3.92;;;20.20;68.00;;;;;;5102558;28;20062;-76
2021/09/09 07:07:19;;;;;;;4.95;4.45;;;20.20;68.70;;;;;;5112787;28;20403;-76
2021/09/09 07:09:45;;;;;;;4.47;3.90;;;20.30;69.60;;;;;;5091085;28;20028;-76
2021/09/09 07:12:11;;;;;;;4.70;4.30;;;20.30;71.20;;;;;;5088288;28;20024;-76
2021/09/09 07:14:43;;;;;;;5.40;4.30;;;20.40;71.10;;;;;;5106591;28;20118;-76
2021/09/09 07:17:40;;;;;;;6.95;4.20;;;20.40;70.20;;;;;;5111085;28;20020;-76
2021/09/09 07:20:08;;;;;;;4.88;4.32;;;20.40;67.50;;;;;;5095507;28;20043;-76
2021/09/09 07:22:38;;;;;;;4.70;4.28;;;20.50;65.10;;;;;;5112665;28;20482;-76
2021/09/09 07:25:10;;;;;;;6.05;4.00;;;20.60;62.10;;;;;;5110074;28;20096;-77
2021/09/09 07:27:37;;;;;;;4.95;4.25;;;20.60;63.60;;;;;;5113579;28;20106;-76
2021/09/09 07:30:07;;;;;;;6.68;4.35;;;20.70;66.30;;;;;;5111889;28;20024;-76
2021/09/09 07:32:35;;;;;;;4.47;4.07;;;20.70;66.90;;;;;;5111949;28;20028;-76
2021/09/09 07:35:01;;;;;;;12.18;4.05;;;20.80;66.50;;;;;;5111132;28;20016;-76
2021/09/09 07:37:27;;;;;;;10.00;3.72;;;20.80;66.40;;;;;;5111874;28;20035;-75
2021/09/09 07:39:53;;;;;;;7.28;4.00;;;20.80;66.20;;;;;;5105469;28;20019;-76
2021/09/09 07:42:19;;;;;;;10.98;3.53;;;20.90;65.50;;;;;;5113711;28;20049;-76
2021/09/09 07:44:44;;;;;;;4.97;3.80;;;20.90;64.90;;;;;;5113884;28;20115;-76
2021/09/09 07:47:10;;;;;;;7.60;3.83;;;21.00;64.80;;;;;;5113789;28;20148;-76
2021/09/09 07:49:36;;;;;;;5.68;4.03;;;21.00;65.10;;;;;;5112602;28;20019;-76
2021/09/09 07:52:02;;;;;;;5.45;3.80;;;21.00;63.20;;;;;;5106415;28;20744;-74
2021/09/09 07:54:27;;;;;;;4.35;3.28;;;21.00;64.90;;;;;;5088134;28;20161;-74
2021/09/09 07:56:54;;;;;;;6.68;3.95;;;21.10;62.50;;;;;;5102534;28;20102;-75
2021/09/09 07:59:20;;;;;;;4.82;3.35;;;21.20;62.70;;;;;;5106109;28;20106;-75
2021/09/09 08:01:45;;;;;;;6.25;3.80;;;21.20;63.20;;;;;;5107950;28;20489;-75
2021/09/09 08:04:16;;;;;;;4.97;3.58;;;21.20;63.20;;;;;;5108736;28;20020;-74
2021/09/09 08:06:47;;;;;;;6.85;3.60;;;21.30;63.50;;;;;;5101078;28;20053;-75
2021/09/09 08:09:13;;;;;;;5.55;4.00;;;21.30;63.60;;;;;;5085744;28;20012;-75
2021/09/09 08:11:40;;;;;;;4.97;3.72;;;21.40;61.60;;;;;;5107744;28;20471;-74
2021/09/09 08:14:06;;;;;;;9.30;3.92;;;21.40;62.30;;;;;;5099829;28;20016;-74
2021/09/09 08:16:32;;;;;;;4.68;3.20;;;21.40;63.20;;;;;;5107236;28;20070;-75
2021/09/09 08:18:58;;;;;;;5.03;4.57;;;21.50;60.80;;;;;;5092986;28;20023;-75
2021/09/09 08:21:24;;;;;;;4.80;3.92;;;21.60;62.80;;;;;;5090425;28;20050;-74
2021/09/09 08:23:49;;;;;;;7.25;4.10;;;21.70;60.20;;;;;;5108397;28;20051;-75
2021/09/09 08:26:15;;;;;;;11.35;4.05;;;21.70;60.20;;;;;;5102067;28;20020;-75
2021/09/09 08:28:41;;;;;;;10.65;4.05;;;21.70;61.00;;;;;;5087755;28;20469;-75
2021/09/09 08:31:07;;;;;;;8.18;3.70;;;21.70;62.20;;;;;;5106282;28;20039;-75
2021/09/09 08:33:32;;;;;;;5.78;4.60;;;21.70;62.80;;;;;;5108750;28;20560;-75
2021/09/09 08:36:03;;;;;;;7.03;4.30;;;21.80;62.50;;;;;;5089709;28;20032;-75
2021/09/09 08:38:29;;;;;;;7.25;4.35;;;21.80;63.90;;;;;;5107481;28;20031;-74
2021/09/09 08:40:55;;;;;;;6.40;4.20;;;21.80;62.60;;;;;;5107981;28;20026;-75
2021/09/09 08:43:21;;;;;;;6.28;4.18;;;21.90;62.60;;;;;;5106335;28;20042;-74
2021/09/09 08:45:50;;;;;;;7.25;4.47;;;22.00;62.30;;;;;;5107993;28;20093;-75
2021/09/09 08:48:17;;;;;;;8.00;4.82;;;22.00;62.10;;;;;;5107503;28;20028;-74
2021/09/09 08:50:43;;;;;;;5.00;4.50;;;22.10;61.70;;;;;;5107094;28;20038;-76
2021/09/09 08:53:09;;;;;;;8.68;4.57;;;22.10;64.40;;;;;;5087165;28;20032;-76
2021/09/09 08:55:35;;;;;;;6.70;4.30;;;22.10;62.70;;;;;;5107010;28;20364;-75
2021/09/09 08:58:02;;;;;;;7.28;5.22;;;22.20;58.70;;;;;;5088070;28;20036;-75
2021/09/09 09:00:28;;;;;;;5.53;4.47;;;22.30;58.80;;;;;;5107286;28;20028;-75
2021/09/09 09:03:00;;;;;;;7.18;4.63;;;22.30;58.50;;;;;;5108169;28;20039;-75
2021/09/09 09:05:26;;;;;;;5.63;4.60;;;22.40;57.40;;;;;;5106282;28;20023;-76
2021/09/09 09:08:01;;;;;;;10.90;4.32;;;22.40;57.30;;;;;;5100170;28;20038;-76
2021/09/09 09:10:28;;;;;;;9.65;5.72;;;22.30;56.20;;;;;;5100786;28;20479;-76
2021/09/09 09:12:53;;;;;;;5.88;4.35;;;22.30;58.40;;;;;;5098384;28;20557;-76
2021/09/09 09:15:23;;;;;;;6.45;4.20;;;22.40;58.90;;;;;;5094826;28;20103;-76
2021/09/09 09:18:07;;;;;;;4.38;3.97;;;22.40;59.90;;;;;;5109993;28;20103;-76
2021/09/09 09:20:49;;;;;;;5.60;5.00;;;22.40;56.30;;;;;;5103495;28;20135;-76
2021/09/09 09:23:23;;;;;;;6.43;4.47;;;22.50;57.30;;;;;;5111398;28;20050;-76
2021/09/09 09:25:51;;;;;;;6.70;3.90;;;22.50;57.60;;;;;;5103864;28;20505;-76
2021/09/09 09:28:41;;;;;;;5.20;4.25;;;22.50;59.90;;;;;;5110908;28;20023;-76
2021/09/09 09:31:08;;;;;;;4.18;3.85;;;22.50;60.70;;;;;;5079416;28;20606;-76
2021/09/09 09:33:44;;;;;;;4.55;4.15;;;22.80;57.50;;;;;;5090620;28;20016;-76
2021/09/09 09:36:14;;;;;;;8.93;5.10;;;22.90;57.90;;;;;;5105445;28;20023;-76
2021/09/09 09:38:40;;;;;;;4.95;4.47;;;22.90;56.10;;;;;;5103063;28;20428;-76
2021/09/09 09:41:06;;;;;;;7.78;4.55;;;22.90;55.10;;;;;;5102134;28;20020;-76
2021/09/09 09:43:32;;;;;;;4.40;4.00;;;22.90;55.10;;;;;;5110374;28;20032;-76
2021/09/09 09:45:59;;;;;;;4.78;3.70;;;22.90;55.00;;;;;;5111446;28;20414;-75
2021/09/09 09:48:32;;;;;;;6.28;4.00;;;22.90;55.40;;;;;;5103725;28;20046;-76
2021/09/09 09:50:58;;;;;;;3.90;3.60;;;23.00;56.00;;;;;;5084019;28;20030;-76
2021/09/09 09:53:23;;;;;;;4.07;3.67;;;23.20;54.20;;;;;;5106611;28;20024;-76
2021/09/09 09:55:50;;;;;;;6.47;3.88;;;23.20;53.70;;;;;;5113806;28;20030;-76
2021/09/09 09:58:16;;;;;;;13.98;4.25;;;23.20;53.50;;;;;;5113243;28;20463;-76
2021/09/09 10:00:43;;;;;;;9.23;4.75;;;23.30;53.90;;;;;;5095663;28;20441;-75
2021/09/09 10:03:09;;;;;;;8.43;4.20;;;23.30;52.90;;;;;;5113741;28;20020;-75
2021/09/09 10:05:37;;;;;;;4.55;4.15;;;23.40;53.60;;;;;;5105964;28;20080;-76
2021/09/09 10:08:04;;;;;;;4.40;3.85;;;23.60;55.10;;;;;;5113738;28;20019;-76
2021/09/09 10:10:31;;;;;;;6.32;3.97;;;23.60;56.90;;;;;;5111699;28;20482;-76
2021/09/09 10:12:57;;;;;;;4.50;4.03;;;23.70;54.40;;;;;;5106092;28;20016;-76
2021/09/09 10:15:23;;;;;;;7.80;4.10;;;23.90;53.10;;;;;;5108338;28;20111;-76
2021/09/09 10:17:53;;;;;;;6.35;4.30;;;23.90;54.20;;;;;;5099280;28;20031;-75
2021/09/09 10:20:32;;;;;;;4.50;4.10;;;23.80;55.10;;;;;;5113206;28;20036;-76
2021/09/09 10:23:06;;;;;;;7.55;4.28;;;23.80;52.40;;;;;;5099651;28;20020;-76
2021/09/09 10:25:54;;;;;;;10.95;4.32;;;23.90;54.10;;;;;;5113422;28;20526;-76
2021/09/09 10:28:48;;;;;;;4.38;3.95;;;23.90;52.50;;;;;;5113714;28;20031;-76
2021/09/09 10:31:19;;;;;;;6.00;4.32;;;24.00;51.40;;;;;;5091304;28;20020;-76
2021/09/09 10:33:47;;;;;;;7.20;4.15;;;24.10;53.30;;;;;;5112704;28;20027;-76
2021/09/09 10:36:37;;;;;;;5.95;3.58;;;24.20;52.50;;;;;;5113731;28;20024;-75
2021/09/09 10:39:03;;;;;;;9.50;3.95;;;24.20;51.70;;;;;;5108368;28;20023;-75
2021/09/09 10:41:29;;;;;;;4.45;3.80;;;24.10;52.80;;;;;;5107048;28;20447;-75
2021/09/09 10:44:00;;;;;;;4.03;3.60;;;24.10;51.10;;;;;;5093308;28;20063;-76
2021/09/09 10:46:38;;;;;;;4.03;3.63;;;24.10;52.60;;;;;;5112825;28;20367;-75
2021/09/09 10:49:10;;;;;;;4.20;3.63;;;24.20;55.60;;;;;;5106257;28;20417;-75
2021/09/09 10:51:36;;;;;;;4.10;3.55;;;24.40;50.80;;;;;;5113080;28;20064;-76
2021/09/09 10:54:02;;;;;;;9.65;4.30;;;24.50;51.10;;;;;;5102571;28;20405;-76
2021/09/09 10:56:37;;;;;;;4.20;3.80;;;24.50;49.20;;;;;;5107779;28;20019;-76
2021/09/09 10:59:19;;;;;;;5.35;4.00;;;24.50;52.50;;;;;;5113422;28;20024;-76
2021/09/09 11:01:46;;;;;;;4.57;3.72;;;24.80;52.40;;;;;;5102666;28;20066;-76
2021/09/09 11:04:33;;;;;;;4.03;3.67;;;24.80;52.60;;;;;;5092426;28;20030;-76
2021/09/09 11:07:00;;;;;;;5.00;3.88;;;24.90;52.00;;;;;;5097915;28;20475;-76
2021/09/09 11:09:28;;;;;;;6.88;4.20;;;24.90;52.10;;;;;;5113895;28;20023;-75
2021/09/09 11:12:04;;;;;;;5.43;4.22;;;24.90;50.80;;;;;;5107246;28;20029;-76
2021/09/09 11:14:31;;;;;;;4.60;4.10;;;25.00;51.50;;;;;;5100180;28;20058;-76
2021/09/09 11:16:58;;;;;;;6.18;4.03;;;25.00;48.50;;;;;;5096415;28;20032;-75
2021/09/09 11:19:24;;;;;;;6.05;3.83;;;24.90;50.00;;;;;;5094797;28;20036;-76
2021/09/09 11:21:50;;;;;;;4.90;4.28;;;25.00;51.20;;;;;;5113325;28;20116;-76
2021/09/09 11:24:17;;;;;;;6.85;4.25;;;25.10;49.80;;;;;;5105210;28;20028;-75
2021/09/09 11:26:46;;;;;;;8.45;4.15;;;25.20;49.80;;;;;;5094418;28;20028;-75
2021/09/09 11:29:12;;;;;;;10.05;4.82;;;25.10;48.10;;;;;;5107580;28;20032;-75
2021/09/09 11:31:47;;;;;;;4.55;3.65;;;25.10;49.60;;;;;;5110038;28;20386;-75
2021/09/09 11:34:14;;;;;;;5.95;4.20;;;25.20;50.70;;;;;;5104264;28;20473;-75
2021/09/09 11:36:44;;;;;;;5.65;4.15;;;25.10;49.20;;;;;;5112003;28;20027;-75
2021/09/09 11:39:15;;;;;;;4.30;3.90;;;25.10;50.70;;;;;;5096054;28;20039;-76
2021/09/09 11:41:42;;;;;;;5.00;4.25;;;25.10;52.40;;;;;;5104629;28;20075;-76
2021/09/09 11:44:25;;;;;;;8.35;4.00;;;25.30;48.60;;;;;;5105228;28;20027;-75
2021/09/09 11:46:50;;;;;;;4.32;3.92;;;25.30;49.00;;;;;;5104553;28;20452;-75
2021/09/09 11:49:19;;;;;;;5.28;3.88;;;25.30;48.50;;;;;;5097841;28;20028;-76
2021/09/09 11:51:47;;;;;;;5.68;4.03;;;25.40;48.30;;;;;;5093187;28;20022;-76
2021/09/09 11:54:20;;;;;;;4.38;3.80;;;25.50;48.70;;;;;;5100434;28;20056;-76
2021/09/09 11:56:50;;;;;;;5.75;4.40;;;25.60;46.80;;;;;;5099798;28;20023;-75
2021/09/09 11:59:18;;;;;;;4.82;4.43;;;25.50;46.70;;;;;;5105119;28;20173;-75
2021/09/09 12:01:52;;;;;;;4.93;3.92;;;25.60;47.00;;;;;;5112176;28;20049;-75
2021/09/09 12:04:21;;;;;;;4.43;4.00;;;25.60;46.30;;;;;;5110569;28;20023;-76
2021/09/09 12:06:47;;;;;;;4.38;3.97;;;25.50;46.50;;;;;;5106485;28;20027;-75
2021/09/09 12:09:59;;;;;;;5.00;4.50;;;25.60;47.30;;;;;;5092237;28;20372;-75
2021/09/09 12:12:28;;;;;;;6.47;3.75;;;25.70;46.90;;;;;;5101009;28;20040;-75
2021/09/09 12:15:11;;;;;;;9.95;4.45;;;25.70;47.40;;;;;;5111767;28;20420;-75
2021/09/09 12:17:38;;;;;;;5.35;4.50;;;25.80;48.60;;;;;;5110061;28;20039;-75
2021/09/09 12:20:12;;;;;;;6.80;4.60;;;25.90;46.40;;;;;;5110800;28;20040;-75
2021/09/09 12:22:45;;;;;;;6.28;4.10;;;25.80;46.20;;;;;;5109386;28;20559;-75
2021/09/09 12:25:26;;;;;;;5.70;4.30;;;25.90;48.50;;;;;;5092771;28;20071;-75
2021/09/09 12:27:57;;;;;;;5.07;4.50;;;26.00;49.00;;;;;;5111389;28;20456;-75
2021/09/09 12:30:48;;;;;;;4.53;4.13;;;25.90;46.80;;;;;;5093237;28;20524;-75
2021/09/09 12:33:18;;;;;;;5.60;4.63;;;25.90;47.70;;;;;;5104845;28;20074;-75
2021/09/09 12:36:04;;;;;;;4.82;3.78;;;26.00;48.70;;;;;;5111755;28;20257;-75
2021/09/09 12:38:41;;;;;;;5.60;3.95;;;26.00;47.70;;;;;;5088184;28;20024;-75
2021/09/09 12:41:16;;;;;;;7.40;4.22;;;26.10;47.80;;;;;;5102803;28;20024;-75
2021/09/09 12:43:43;;;;;;;4.78;4.38;;;26.20;49.80;;;;;;5087298;28;20061;-75
2021/09/09 12:46:32;;;;;;;9.40;4.38;;;26.20;50.30;;;;;;5096110;28;20425;-75
2021/09/09 12:49:06;;;;;;;6.85;4.50;;;26.20;48.30;;;;;;5104291;28;20028;-75